createdAt,value
2018-06-19T05:36:00.474Z,65.00
2018-06-19T05:38:29.295Z,65.80
2018-06-19T05:40:58.092Z,65.90
2018-06-19T05:43:26.881Z,65.40
2018-06-19T05:48:24.046Z,65.30
2018-06-19T05:50:53.876Z,66.30
2018-06-19T05:53:22.637Z,65.50
2018-06-19T05:58:19.829Z,65.50
2018-06-19T06:03:18.407Z,64.60
2018-06-19T06:05:47.184Z,64.40
2018-06-19T06:08:15.906Z,63.00
2018-06-19T06:10:44.775Z,63.10
2018-06-19T06:13:13.614Z,62.70
2018-06-19T06:15:42.480Z,62.40
2018-06-19T06:20:39.579Z,61.40
2018-06-19T06:23:08.305Z,61.70
2018-06-19T06:25:38.131Z,61.20
2018-06-19T06:28:06.872Z,61.70
2018-06-19T06:30:35.691Z,61.40
2018-06-19T06:33:22.258Z,60.70
2018-06-19T06:36:06.885Z,59.40
2018-06-19T06:38:36.290Z,60.10
2018-06-19T06:41:05.039Z,59.70
2018-06-19T06:43:33.942Z,58.90
2018-06-19T06:46:02.914Z,59.40
2018-06-19T06:48:32.184Z,59.80
2018-06-19T06:51:01.156Z,58.80
2018-06-19T06:53:30.055Z,59.30
2018-06-19T06:55:58.960Z,57.70
2018-06-19T06:58:27.867Z,59.70
2018-06-19T07:00:56.507Z,58.60
2018-06-19T07:03:25.546Z,59.00
2018-06-19T07:05:54.827Z,58.60
2018-06-19T07:08:23.490Z,58.50
2018-06-19T07:10:52.243Z,58.70
2018-06-19T07:13:21.068Z,57.60
2018-06-19T07:15:49.834Z,57.90
2018-06-19T07:18:18.848Z,57.30
2018-06-19T07:20:48.897Z,56.90
2018-06-19T07:23:17.736Z,56.20
2018-06-19T07:25:46.696Z,55.00
2018-06-19T07:28:23.777Z,55.90
2018-06-19T07:31:06.021Z,54.50
2018-06-19T07:33:37.129Z,55.20
2018-06-19T07:38:34.795Z,54.90
2018-06-19T07:41:03.621Z,56.20
2018-06-19T07:43:32.660Z,55.50
2018-06-19T07:46:01.972Z,55.90
2018-06-19T07:48:30.842Z,56.10
2018-06-19T07:50:59.702Z,56.10
2018-06-19T07:53:29.274Z,56.70
2018-06-19T07:55:57.994Z,56.70
2018-06-19T08:00:56.577Z,54.80
2018-06-19T08:03:25.626Z,55.30
2018-06-19T08:05:54.666Z,55.30
2018-06-19T08:08:23.535Z,55.50
2018-06-19T08:10:52.347Z,54.80
2018-06-19T08:13:21.159Z,54.00
2018-06-19T08:15:50.841Z,54.50
2018-06-19T08:18:25.279Z,54.50
2018-06-19T08:20:54.376Z,53.40
2018-06-19T08:23:29.313Z,53.40
2018-06-19T08:28:29.003Z,53.70
2018-06-19T08:30:58.558Z,53.50
2018-06-19T08:33:32.500Z,54.10
2018-06-19T08:36:01.435Z,53.10
2018-06-19T08:38:30.224Z,54.80
2018-06-19T08:40:59.021Z,55.20
2018-06-19T08:43:27.994Z,55.60
2018-06-19T08:45:56.864Z,54.70
2018-06-19T08:48:25.571Z,55.10
2018-06-19T08:50:54.488Z,55.40
2018-06-19T08:53:23.235Z,55.40
2018-06-19T08:55:52.115Z,55.90
2018-06-19T08:58:21.104Z,56.50
2018-06-19T09:03:20.303Z,54.80
2018-06-19T09:10:46.194Z,54.10
2018-06-19T09:13:14.919Z,52.90
2018-06-19T09:15:44.005Z,53.30
2018-06-19T09:18:12.766Z,53.30
2018-06-19T09:20:41.996Z,52.80
2018-06-19T09:23:10.845Z,51.80
2018-06-19T09:28:08.055Z,53.00
2018-06-19T09:30:36.897Z,51.70
2018-06-19T09:33:14.369Z,51.60
2018-06-19T09:35:49.842Z,51.20
2018-06-19T09:38:18.913Z,50.50
2018-06-19T09:40:47.787Z,50.50
2018-06-19T09:43:16.953Z,50.60
2018-06-19T09:45:45.743Z,50.60
2018-06-19T09:48:23.653Z,50.30
2018-06-19T09:53:32.030Z,47.70
2018-06-19T09:56:01.523Z,48.60
2018-06-19T09:58:30.592Z,48.10
2018-06-19T10:01:01.743Z,47.60
2018-06-19T10:03:32.617Z,47.90
2018-06-19T10:06:24.438Z,47.70
2018-06-19T10:09:35.764Z,47.30
2018-06-19T10:14:36.445Z,46.40
2018-06-19T10:17:06.769Z,47.40
2018-06-19T10:19:36.519Z,46.50
2018-06-19T10:22:09.766Z,46.30
2018-06-19T10:24:50.273Z,46.10
2018-06-19T10:27:30.785Z,45.20
2018-06-19T10:30:24.681Z,44.50
2018-06-19T10:33:08.567Z,43.90
2018-06-19T10:35:38.181Z,43.60
2018-06-19T10:38:07.213Z,44.10
2018-06-19T10:40:36.288Z,44.30
2018-06-19T10:43:05.784Z,44.80
2018-06-19T10:45:53.574Z,44.00
2018-06-19T10:49:18.075Z,43.60
2018-06-19T10:54:46.602Z,40.00
2018-06-19T10:57:15.437Z,39.70
2018-06-19T10:59:44.402Z,38.10
2018-06-19T11:02:13.202Z,38.10
2018-06-19T11:04:42.199Z,37.80
2018-06-19T11:07:12.050Z,36.40
2018-06-19T11:09:46.857Z,36.30
2018-06-19T11:12:16.410Z,36.10
2018-06-19T11:14:45.349Z,36.10
2018-06-19T11:17:14.430Z,35.50
2018-06-19T11:26:30.139Z,34.10
2018-06-19T11:28:59.089Z,34.90
2018-06-19T11:31:28.091Z,33.90
2018-06-19T11:33:56.929Z,32.10
2018-06-19T11:36:25.927Z,32.00
2018-06-19T11:38:55.778Z,32.50
2018-06-19T11:41:24.606Z,32.60
2018-06-19T11:43:57.891Z,33.00
2018-06-19T11:46:26.702Z,32.10
2018-06-19T11:48:55.387Z,32.10
2018-06-19T11:51:25.983Z,32.30
2018-06-19T11:53:54.825Z,33.40
2018-06-19T11:56:23.704Z,33.60
2018-06-19T11:58:53.006Z,35.10
2018-06-19T12:01:22.584Z,35.00
2018-06-19T12:04:02.663Z,35.40
2018-06-19T12:06:42.485Z,36.90
2018-06-19T12:09:13.688Z,37.60
2018-06-19T12:11:43.848Z,38.50
2018-06-19T12:14:13.332Z,38.90
2018-06-19T12:16:42.417Z,39.10
2018-06-19T12:19:11.910Z,38.20
2018-06-19T12:21:40.961Z,37.80
2018-06-19T12:24:10.102Z,36.50
2018-06-19T12:26:59.809Z,35.70
2018-06-19T12:29:40.884Z,36.40
2018-06-19T12:32:11.820Z,37.90
2018-06-19T12:34:41.597Z,38.20
2018-06-19T12:37:15.661Z,38.20
2018-06-19T12:39:51.771Z,36.40
2018-06-19T12:42:28.360Z,33.80
2018-06-19T12:44:57.712Z,32.40
2018-06-19T12:47:27.315Z,34.40
2018-06-19T12:52:11.332Z,35.10
2018-06-19T12:54:51.058Z,33.00
2018-06-19T12:57:20.064Z,30.80
2018-06-19T12:59:48.957Z,29.50
2018-06-19T13:02:17.861Z,29.30
2018-06-19T13:04:57.778Z,31.50
2018-06-19T13:07:27.516Z,31.80
2018-06-19T13:09:56.359Z,31.80
2018-06-19T13:12:36.237Z,30.90
2018-06-19T13:15:05.600Z,30.50
2018-06-19T13:17:45.229Z,30.00
2018-06-19T13:20:25.266Z,29.70
2018-06-19T13:22:55.041Z,29.60
2018-06-19T13:25:24.109Z,29.30
2018-06-19T13:27:52.976Z,29.90
2018-06-19T13:30:32.808Z,31.40
2018-06-19T13:33:01.666Z,32.70
2018-06-19T13:35:30.416Z,34.70
2018-06-19T13:37:59.234Z,35.50
2018-06-19T13:41:05.637Z,36.50
2018-06-19T13:43:45.599Z,37.50
2018-06-19T13:46:14.794Z,37.80
2018-06-19T13:48:43.965Z,37.50
2018-06-19T13:51:18.430Z,38.40
2018-06-19T13:53:54.692Z,38.20
2018-06-19T13:57:37.658Z,38.40
2018-06-19T14:00:08.794Z,38.40
2018-06-19T14:02:37.746Z,37.90
2018-06-19T14:05:07.709Z,35.90
2018-06-19T14:07:43.473Z,35.40
2018-06-19T14:10:25.794Z,35.50
2018-06-19T14:13:01.701Z,33.80
2018-06-19T14:15:32.086Z,31.60
2018-06-19T14:18:03.855Z,30.10
2018-06-19T14:20:33.107Z,29.50
2018-06-19T14:23:01.937Z,29.40
2018-06-19T14:25:30.644Z,29.00
2018-06-19T14:28:04.057Z,29.50
2018-06-19T14:30:33.016Z,30.10
2018-06-19T14:33:01.883Z,29.10
2018-06-19T14:35:30.864Z,29.40
2018-06-19T14:37:59.994Z,29.30
2018-06-19T14:40:28.831Z,29.40
2018-06-19T14:42:57.705Z,28.70
2018-06-19T14:45:26.604Z,28.50
2018-06-19T14:47:59.326Z,28.50
2018-06-19T14:50:28.116Z,28.00
2018-06-19T14:52:57.369Z,28.30
2018-06-19T14:55:26.284Z,28.70
2018-06-19T14:57:55.168Z,29.20
2018-06-19T15:00:23.944Z,30.80
2018-06-19T15:02:53.148Z,32.90
2018-06-19T15:05:22.572Z,33.90
2018-06-19T15:07:53.621Z,31.30
2018-06-19T15:10:22.812Z,30.60
2018-06-19T15:12:51.648Z,30.80
2018-06-19T15:15:20.483Z,31.80
2018-06-19T15:17:49.431Z,31.90
2018-06-19T15:20:19.981Z,31.40
2018-06-19T15:22:49.629Z,30.40
2018-06-19T15:25:18.505Z,29.80
2018-06-19T15:27:47.888Z,29.90
2018-06-19T15:30:16.752Z,29.80
2018-06-19T15:32:45.383Z,29.40
2018-06-19T15:35:14.054Z,29.30
2018-06-19T15:37:42.796Z,29.00
2018-06-19T15:40:11.724Z,29.80
2018-06-19T15:42:40.422Z,30.50
2018-06-19T15:45:09.286Z,32.00
2018-06-19T15:47:38.338Z,33.80
2018-06-19T15:50:07.098Z,34.60
2018-06-19T15:52:35.931Z,36.10
2018-06-19T15:55:05.022Z,38.00
2018-06-19T15:57:33.858Z,38.60
2018-06-19T16:00:02.869Z,38.90
2018-06-19T16:02:31.598Z,39.00
2018-06-19T16:05:01.476Z,38.20
2018-06-19T16:07:30.375Z,38.90
2018-06-19T16:09:59.055Z,39.40
2018-06-19T16:12:27.817Z,39.80
2018-06-19T16:14:56.641Z,40.40
2018-06-19T16:17:25.365Z,41.10
2018-06-19T16:19:54.232Z,40.10
2018-06-19T16:22:23.110Z,40.30
2018-06-19T16:24:51.958Z,40.90
2018-06-19T16:27:20.662Z,41.60
2018-06-19T16:29:49.565Z,41.70
2018-06-19T16:32:18.414Z,42.00
2018-06-19T16:34:47.207Z,42.30
2018-06-19T16:37:16.198Z,42.70
2018-06-19T16:39:44.911Z,42.60
2018-06-19T16:42:13.809Z,43.20
2018-06-19T16:44:42.545Z,42.30
2018-06-19T16:47:11.284Z,43.10
2018-06-19T16:49:40.038Z,42.90
2018-06-19T16:52:08.829Z,42.90
2018-06-19T16:54:37.489Z,43.00
2018-06-19T16:57:06.447Z,43.10
2018-06-19T16:59:35.405Z,43.00
2018-06-19T17:02:04.228Z,42.30
2018-06-19T17:04:32.967Z,43.30
2018-06-19T17:07:01.663Z,43.70
2018-06-19T17:09:30.518Z,44.10
2018-06-19T17:11:59.240Z,44.30
2018-06-19T17:14:30.915Z,43.80
2018-06-19T17:16:59.674Z,43.50
2018-06-19T17:19:29.340Z,43.10
2018-06-19T17:21:58.418Z,43.20
2018-06-19T17:24:27.354Z,43.50
2018-06-19T17:26:56.226Z,43.80
2018-06-19T17:29:25.133Z,43.80
2018-06-19T17:31:53.915Z,43.90
2018-06-19T17:34:22.768Z,44.30
2018-06-19T17:36:52.243Z,44.60
2018-06-19T17:39:21.069Z,44.60
2018-06-19T17:41:49.783Z,44.60
2018-06-19T17:44:18.480Z,44.80
2018-06-19T17:46:47.218Z,44.90
2018-06-19T17:49:15.900Z,45.40
2018-06-19T17:51:44.763Z,45.70
2018-06-19T17:54:13.495Z,45.50
2018-06-19T17:56:42.275Z,45.90
2018-06-19T17:59:11.100Z,46.20
2018-06-19T18:01:39.865Z,47.00
2018-06-19T18:04:08.661Z,46.60
2018-06-19T18:06:37.545Z,46.50
2018-06-19T18:09:08.739Z,46.60
2018-06-19T18:11:37.581Z,46.60
2018-06-19T18:14:06.520Z,47.10
2018-06-19T18:16:35.706Z,47.30
2018-06-19T18:19:04.470Z,47.60
2018-06-19T18:21:33.224Z,47.70
2018-06-19T18:24:02.075Z,47.40
2018-06-19T18:26:30.621Z,47.60
2018-06-19T18:28:59.457Z,47.80
2018-06-19T18:31:28.337Z,47.80
2018-06-19T18:33:57.126Z,47.90
2018-06-19T18:36:26.494Z,48.10
2018-06-19T18:39:00.525Z,48.10
2018-06-19T18:41:29.564Z,48.40
2018-06-19T18:43:58.513Z,48.40
2018-06-19T18:46:27.212Z,48.40
2018-06-19T18:48:55.949Z,48.30
2018-06-19T18:51:24.744Z,48.70
2018-06-19T18:53:53.603Z,48.80
2018-06-19T18:56:22.304Z,49.00
2018-06-19T18:58:50.992Z,49.00
2018-06-19T19:01:19.845Z,49.20
2018-06-19T19:03:48.586Z,49.30
2018-06-19T19:06:17.855Z,49.10
2018-06-19T19:08:46.735Z,49.50
2018-06-19T19:11:15.457Z,49.70
2018-06-19T19:13:44.235Z,49.40
2018-06-19T19:16:22.839Z,50.10
2018-06-19T19:18:56.674Z,50.00
2018-06-19T19:21:25.351Z,48.80
2018-06-19T19:23:54.100Z,50.20
2018-06-19T19:26:28.682Z,50.10
2018-06-19T19:29:02.718Z,50.20
2018-06-19T19:31:31.866Z,50.30
2018-06-19T19:34:00.697Z,50.10
2018-06-19T19:36:34.753Z,49.90
2018-06-19T19:39:09.383Z,49.80
2018-06-19T19:41:38.201Z,48.70
2018-06-19T19:44:07.063Z,48.00
2018-06-19T19:46:40.965Z,49.90
2018-06-19T19:49:09.746Z,50.20
2018-06-19T19:51:38.581Z,50.50
2018-06-19T19:54:07.655Z,50.40
2018-06-19T19:56:41.561Z,50.50
2018-06-19T19:59:10.336Z,50.60
2018-06-19T20:01:39.037Z,50.70
2018-06-19T20:04:07.777Z,50.70
2018-06-19T20:06:36.878Z,50.70
2018-06-19T20:09:07.659Z,51.00
2018-06-19T20:11:36.336Z,51.10
2018-06-19T20:14:05.614Z,51.20
2018-06-19T20:16:34.324Z,51.30
2018-06-19T20:19:03.062Z,51.60
2018-06-19T20:21:32.102Z,51.60
2018-06-19T20:24:02.392Z,52.00
2018-06-19T20:26:32.484Z,52.20
2018-06-19T20:29:01.212Z,52.20
2018-06-19T20:31:29.943Z,52.40
2018-06-19T20:33:58.943Z,52.50
2018-06-19T20:36:27.783Z,52.70
2018-06-19T20:38:56.563Z,53.00
2018-06-19T20:41:25.208Z,53.00
2018-06-19T20:43:54.128Z,53.30
2018-06-19T20:46:23.049Z,53.10
2018-06-19T20:48:51.795Z,53.30
2018-06-19T20:51:20.627Z,53.70
2018-06-19T20:53:49.299Z,53.70
2018-06-19T20:56:18.009Z,53.80
2018-06-19T20:58:47.176Z,53.80
2018-06-19T21:01:15.893Z,54.10
2018-06-19T21:03:44.748Z,53.90
2018-06-19T21:06:13.640Z,53.50
2018-06-19T21:08:43.035Z,53.70
2018-06-19T21:11:13.549Z,54.40
2018-06-19T21:13:42.251Z,54.70
2018-06-19T21:16:11.141Z,55.00
2018-06-19T21:18:39.989Z,55.00
2018-06-19T21:21:09.518Z,55.30
2018-06-19T21:23:38.523Z,55.10
2018-06-19T21:26:07.371Z,55.10
2018-06-19T21:28:37.252Z,54.80
2018-06-19T21:31:05.996Z,54.70
2018-06-19T21:33:34.886Z,54.60
2018-06-19T21:36:03.628Z,55.00
2018-06-19T21:38:32.547Z,55.00
2018-06-19T21:41:01.426Z,55.00
2018-06-19T21:43:30.237Z,54.80
2018-06-19T21:45:58.912Z,54.80
2018-06-19T21:48:27.491Z,54.80
2018-06-19T21:50:56.681Z,54.80
2018-06-19T21:53:25.328Z,54.90
2018-06-19T21:55:54.095Z,55.00
2018-06-19T21:58:22.878Z,55.10
2018-06-19T22:00:51.526Z,55.40
2018-06-19T22:03:20.263Z,55.40
2018-06-19T22:05:49.889Z,56.20
2018-06-19T22:08:18.692Z,55.70
2018-06-19T22:10:47.998Z,56.30
2018-06-19T22:13:16.923Z,56.50
2018-06-19T22:15:45.729Z,56.50
2018-06-19T22:18:14.368Z,56.70
2018-06-19T22:27:26.908Z,57.10
2018-06-19T22:29:55.654Z,57.40
2018-06-19T22:32:24.478Z,57.40
2018-06-19T22:34:53.158Z,57.40
2018-06-19T22:37:22.004Z,57.50
2018-06-19T22:39:50.746Z,56.70
2018-06-19T22:42:19.420Z,56.20
2018-06-19T22:44:48.119Z,57.70
2018-06-19T22:47:16.864Z,57.80
2018-06-19T22:49:45.584Z,57.70
2018-06-19T22:52:14.462Z,57.50
2018-06-19T22:54:43.315Z,57.60
2018-06-19T22:57:12.007Z,58.20
2018-06-19T22:59:41.226Z,58.10
2018-06-19T23:02:09.931Z,58.40
2018-06-19T23:04:38.843Z,58.30
2018-06-19T23:07:07.502Z,58.30
2018-06-19T23:09:36.271Z,58.10
2018-06-19T23:12:05.010Z,58.30
2018-06-19T23:14:33.694Z,58.40
2018-06-19T23:17:02.265Z,58.60
2018-06-19T23:19:31.623Z,59.80
2018-06-19T23:22:00.486Z,58.90
2018-06-19T23:24:30.400Z,59.00
2018-06-19T23:26:59.175Z,59.40
2018-06-19T23:29:28.074Z,59.50
2018-06-19T23:31:56.956Z,59.50
2018-06-19T23:34:25.548Z,59.50
2018-06-19T23:36:54.367Z,59.80
2018-06-19T23:39:23.237Z,59.70
2018-06-19T23:41:52.090Z,59.70
2018-06-19T23:44:22.095Z,59.70
2018-06-19T23:46:50.712Z,59.90
2018-06-19T23:49:20.384Z,59.80
2018-06-19T23:51:49.341Z,59.90
2018-06-19T23:54:17.963Z,59.90
2018-06-19T23:56:46.706Z,59.90
2018-06-19T23:59:15.442Z,59.80
